Time;durP1;ratioP1;P1;durP2;ratioP2;P2;SDS_P1;SDS_P2;PMS_P1;PMS_P2;Temp;Humidity;BMP_temperature;BMP_pressure;BME280_temperature;BME280_humidity;BME280_pressure;Samples;Min_cycle;Max_cycle;Signal;HPM_P1;HPM_P2
2023/02/04 00:01:16;;;;;;;1.80;1.70;;;;;;;;;;4975472;28;20054;-91
2023/02/04 00:03:43;;;;;;;0.82;0.82;;;;;;;;;;4975601;28;20051;-92
2023/02/04 00:06:10;;;;;;;3.53;2.00;;;;;;;;;;4977418;28;20043;-91
2023/02/04 00:08:36;;;;;;;4.72;1.23;;;;;;;;;;4994442;28;20046;-92
2023/02/04 00:11:03;;;;;;;1.30;1.20;;;;;;;;;;4993827;28;20137;-90
2023/02/04 00:13:31;;;;;;;1.73;1.63;;;;;;;;;;4994273;28;20050;-91
2023/02/04 00:15:57;;;;;;;5.72;2.90;;;;;;;;;;4996898;28;20046;-91
2023/02/04 00:18:24;;;;;;;1.17;0.70;;;;;;;;;;5011607;28;20054;-90
2023/02/04 00:20:50;;;;;;;0.90;0.90;;;;;;;;;;5017662;28;20057;-91
2023/02/04 00:23:17;;;;;;;0.93;0.93;;;;;;;;;;5018176;28;20104;-91
2023/02/04 00:25:43;;;;;;;0.30;0.20;;;;;;;;;;5017454;28;20104;-90
2023/02/04 00:28:11;;;;;;;1.17;1.17;;;;;;;;;;5018218;28;20061;-91
2023/02/04 00:30:39;;;;;;;1.77;1.50;;;;;;;;;;5017415;28;20057;-91
2023/02/04 00:33:05;;;;;;;1.65;1.55;;;;;;;;;;5017368;28;20427;-91
2023/02/04 00:35:32;;;;;;;0.63;0.55;;;;;;;;;;5015272;28;20056;-91
2023/02/04 00:37:58;;;;;;;2.08;1.67;;;;;;;;;;5018012;28;20057;-91
2023/02/04 00:40:25;;;;;;;2.03;1.77;;;;;;;;;;5017358;28;20050;-90
2023/02/04 00:42:51;;;;;;;1.90;1.77;;;;;;;;;;5017484;28;20050;-91
2023/02/04 00:45:18;;;;;;;1.73;1.58;;;;;;;;;;5017328;28;20069;-91
2023/02/04 00:47:46;;;;;;;0.65;0.65;;;;;;;;;;5017641;28;20050;-91
2023/02/04 00:50:12;;;;;;;1.48;1.27;;;;;;;;;;5018799;28;20053;-91
2023/02/04 00:52:39;;;;;;;1.52;1.05;;;;;;;;;;5002455;28;20459;-91
2023/02/04 00:55:07;;;;;;;1.30;1.10;;;;;;;;;;4997949;28;20488;-91
2023/02/04 00:57:33;;;;;;;1.27;1.27;;;;;;;;;;4997606;28;20050;-91
2023/02/04 01:00:00;;;;;;;0.80;0.80;;;;;;;;;;4998039;28;20046;-91
2023/02/04 01:02:26;;;;;;;1.10;1.10;;;;;;;;;;4997772;28;20054;-91
2023/02/04 01:04:55;;;;;;;0.95;0.95;;;;;;;;;;4997921;28;20050;-91
2023/02/04 01:07:21;;;;;;;1.20;1.13;;;;;;;;;;5002888;28;20054;-92
2023/02/04 01:09:48;;;;;;;1.10;0.70;;;;;;;;;;5017315;28;20060;-90
2023/02/04 01:12:14;;;;;;;2.15;2.05;;;;;;;;;;5017065;28;20096;-91
2023/02/04 01:14:41;;;;;;;1.85;1.75;;;;;;;;;;5017719;28;20462;-91
2023/02/04 01:17:07;;;;;;;0.77;0.77;;;;;;;;;;5016438;28;20062;-90
2023/02/04 01:19:34;;;;;;;3.97;1.35;;;;;;;;;;5016560;28;20077;-91
2023/02/04 01:22:02;;;;;;;2.17;2.08;;;;;;;;;;5016873;28;20056;-92
2023/02/04 01:24:28;;;;;;;0.60;0.60;;;;;;;;;;5016365;28;20053;-92
2023/02/04 01:26:55;;;;;;;0.30;0.30;;;;;;;;;;5016154;28;20042;-91
2023/02/04 01:29:21;;;;;;;1.50;1.50;;;;;;;;;;5016507;28;20058;-91
2023/02/04 01:31:48;;;;;;;1.27;1.27;;;;;;;;;;5016712;28;20054;-92
2023/02/04 01:34:14;;;;;;;0.55;0.55;;;;;;;;;;5016982;28;20050;-92
2023/02/04 01:36:41;;;;;;;2.42;2.22;;;;;;;;;;5016722;28;20462;-92
2023/02/04 01:39:09;;;;;;;3.20;3.08;;;;;;;;;;5016582;28;20057;-92
2023/02/04 01:41:35;;;;;;;1.98;1.88;;;;;;;;;;5012685;28;20480;-90
2023/02/04 01:44:02;;;;;;;0.73;0.73;;;;;;;;;;5016120;28;20135;-90
2023/02/04 01:46:28;;;;;;;0.85;0.85;;;;;;;;;;5016530;28;20046;-91
2023/02/04 01:48:55;;;;;;;1.73;1.63;;;;;;;;;;5016389;28;20103;-92
2023/02/04 01:51:26;;;;;;;7.43;1.95;;;;;;;;;;5016520;28;20053;-92
2023/02/04 01:53:54;;;;;;;2.42;2.22;;;;;;;;;;4996911;28;20051;-92
2023/02/04 01:56:22;;;;;;;1.35;1.25;;;;;;;;;;4996394;28;20052;-91
2023/02/04 01:58:49;;;;;;;2.13;1.23;;;;;;;;;;5015916;28;20128;-92
2023/02/04 02:01:32;;;;;;;0.82;0.73;;;;;;;;;;5016310;28;20072;-91
2023/02/04 02:03:59;;;;;;;1.65;1.55;;;;;;;;;;5015543;28;20104;-91
2023/02/04 02:06:26;;;;;;;1.70;1.60;;;;;;;;;;5016052;28;20054;-92
2023/02/04 02:08:53;;;;;;;2.42;1.80;;;;;;;;;;5016082;28;20049;-91
2023/02/04 02:11:19;;;;;;;1.15;1.05;;;;;;;;;;5016417;28;20115;-92
2023/02/04 02:13:47;;;;;;;3.50;1.90;;;;;;;;;;5015620;28;20072;-92
2023/02/04 02:16:14;;;;;;;2.40;2.08;;;;;;;;;;5016321;28;20046;-92
2023/02/04 02:18:44;;;;;;;4.38;2.25;;;;;;;;;;5031361;28;20064;-91
2023/02/04 02:21:11;;;;;;;2.42;2.33;;;;;;;;;;5035709;28;20546;-90
2023/02/04 02:23:50;;;;;;;1.70;1.60;;;;;;;;;;5034963;28;20057;-90
2023/02/04 02:26:17;;;;;;;1.63;1.38;;;;;;;;;;5035755;28;20515;-92
2023/02/04 02:28:44;;;;;;;1.20;1.20;;;;;;;;;;5035549;28;20045;-92
2023/02/04 02:31:11;;;;;;;1.27;1.20;;;;;;;;;;5018325;28;20118;-92
2023/02/04 02:33:37;;;;;;;1.02;0.93;;;;;;;;;;5015467;28;20404;-92
2023/02/04 02:36:04;;;;;;;0.65;0.63;;;;;;;;;;5015453;28;20050;-91
2023/02/04 02:38:31;;;;;;;1.17;1.17;;;;;;;;;;5014669;28;20042;-91
2023/02/04 02:40:59;;;;;;;1.63;1.25;;;;;;;;;;5015111;28;20069;-92
2023/02/04 02:43:27;;;;;;;2.88;1.02;;;;;;;;;;5015840;28;20049;-90
2023/02/04 02:45:54;;;;;;;1.95;1.50;;;;;;;;;;5015080;28;20057;-91
2023/02/04 02:48:21;;;;;;;1.00;1.00;;;;;;;;;;5028871;28;20079;-91
2023/02/04 02:50:48;;;;;;;2.00;0.90;;;;;;;;;;5035459;28;20045;-91
2023/02/04 02:53:15;;;;;;;1.35;1.25;;;;;;;;;;5035221;28;20057;-91
2023/02/04 02:55:43;;;;;;;0.68;0.68;;;;;;;;;;5035182;28;20443;-91
2023/02/04 02:58:13;;;;;;;1.33;1.23;;;;;;;;;;5035342;28;20056;-90
2023/02/04 03:00:40;;;;;;;2.03;1.83;;;;;;;;;;5035043;28;20123;-91
2023/02/04 03:03:08;;;;;;;1.30;1.20;;;;;;;;;;5034673;28;20049;-91
2023/02/04 03:05:36;;;;;;;1.83;1.73;;;;;;;;;;5032787;28;20046;-92
2023/02/04 03:08:03;;;;;;;1.67;1.55;;;;;;;;;;5034718;28;20049;-90
2023/02/04 03:10:30;;;;;;;5.90;1.50;;;;;;;;;;5034495;28;20050;-90
2023/02/04 03:12:57;;;;;;;1.67;1.08;;;;;;;;;;5034779;28;20050;-91
2023/02/04 03:15:24;;;;;;;0.70;0.70;;;;;;;;;;4995611;28;20112;-92
2023/02/04 03:17:55;;;;;;;0.90;0.82;;;;;;;;;;4995518;28;20046;-91
2023/02/04 03:20:22;;;;;;;1.45;1.35;;;;;;;;;;4995330;28;20074;-91
2023/02/04 03:22:48;;;;;;;1.17;1.10;;;;;;;;;;4992048;28;20404;-92
2023/02/04 03:25:15;;;;;;;1.85;1.75;;;;;;;;;;4995747;28;20054;-92
2023/02/04 03:27:42;;;;;;;1.27;0.57;;;;;;;;;;4995418;28;20050;-91
2023/02/04 03:30:08;;;;;;;1.13;1.13;;;;;;;;;;4995147;28;20125;-91
2023/02/04 03:32:36;;;;;;;1.98;1.88;;;;;;;;;;4995133;28;20392;-91
2023/02/04 03:35:03;;;;;;;1.38;1.27;;;;;;;;;;4995833;28;20050;-91
2023/02/04 03:37:30;;;;;;;2.10;2.00;;;;;;;;;;4994951;28;20049;-90
2023/02/04 03:39:56;;;;;;;5.72;2.03;;;;;;;;;;4994151;28;20077;-90
2023/02/04 03:42:24;;;;;;;0.38;0.38;;;;;;;;;;4994833;28;20073;-89
2023/02/04 03:44:51;;;;;;;0.40;0.40;;;;;;;;;;4994772;28;20488;-92
2023/02/04 03:47:17;;;;;;;1.10;1.08;;;;;;;;;;4994795;28;20062;-91
2023/02/04 03:49:45;;;;;;;0.40;0.40;;;;;;;;;;4994675;28;20050;-91
2023/02/04 03:52:11;;;;;;;1.35;1.25;;;;;;;;;;4994361;28;20054;-90
2023/02/04 03:54:38;;;;;;;1.92;1.10;;;;;;;;;;4994660;28;20058;-91
2023/02/04 03:57:05;;;;;;;0.70;0.70;;;;;;;;;;4994940;28;20092;-92
2023/02/04 03:59:31;;;;;;;0.93;0.93;;;;;;;;;;4995109;28;20062;-92
2023/02/04 04:01:58;;;;;;;1.40;1.30;;;;;;;;;;4995225;28;20058;-91
2023/02/04 04:04:24;;;;;;;0.60;0.60;;;;;;;;;;4994709;28;20050;-88
2023/02/04 04:06:52;;;;;;;1.88;1.77;;;;;;;;;;4994732;28;20113;-90
2023/02/04 04:09:18;;;;;;;0.80;0.80;;;;;;;;;;4994542;28;20429;-90
2023/02/04 04:11:45;;;;;;;6.65;2.67;;;;;;;;;;4994224;28;20046;-91
2023/02/04 04:14:11;;;;;;;0.30;0.30;;;;;;;;;;4994546;28;20105;-89
2023/02/04 04:16:38;;;;;;;0.85;0.82;;;;;;;;;;4994510;28;20555;-90
2023/02/04 04:19:05;;;;;;;1.55;1.45;;;;;;;;;;5013030;28;20104;-91
2023/02/04 04:21:31;;;;;;;0.95;0.95;;;;;;;;;;5014029;28;20057;-91
2023/02/04 04:23:59;;;;;;;0.80;0.80;;;;;;;;;;5014096;28;20050;-91
2023/02/04 04:26:25;;;;;;;2.05;1.33;;;;;;;;;;5014341;28;20045;-91
2023/02/04 04:28:52;;;;;;;1.33;1.33;;;;;;;;;;5014408;28;20447;-90
2023/02/04 04:31:19;;;;;;;3.22;1.73;;;;;;;;;;5008648;28;20503;-91
2023/02/04 04:33:45;;;;;;;0.88;0.88;;;;;;;;;;5014325;28;20109;-90
2023/02/04 04:36:12;;;;;;;1.48;1.45;;;;;;;;;;5014366;28;20038;-91
2023/02/04 04:38:38;;;;;;;0.68;0.68;;;;;;;;;;5013913;28;20045;-91
2023/02/04 04:41:06;;;;;;;1.58;1.48;;;;;;;;;;5013703;28;20058;-91
2023/02/04 04:43:33;;;;;;;2.58;1.80;;;;;;;;;;5013573;28;20053;-93
2023/02/04 04:46:00;;;;;;;1.20;1.13;;;;;;;;;;4994551;28;20105;-91
2023/02/04 04:48:26;;;;;;;0.90;0.90;;;;;;;;;;4997365;28;20050;-90
2023/02/04 04:50:53;;;;;;;0.68;0.68;;;;;;;;;;5013900;28;20467;-90
2023/02/04 04:53:19;;;;;;;1.88;1.58;;;;;;;;;;5013515;28;20504;-91
2023/02/04 04:55:46;;;;;;;0.77;0.77;;;;;;;;;;5013839;28;20057;-91
2023/02/04 04:58:14;;;;;;;1.08;0.75;;;;;;;;;;5014158;28;20061;-91
2023/02/04 05:00:40;;;;;;;1.35;1.35;;;;;;;;;;5014914;28;20062;-91
2023/02/04 05:03:07;;;;;;;2.45;2.35;;;;;;;;;;5017416;28;20050;-91
2023/02/04 05:05:38;;;;;;;0.95;0.85;;;;;;;;;;5016225;28;20079;-91
2023/02/04 05:08:05;;;;;;;0.95;0.82;;;;;;;;;;5017980;28;20416;-92
2023/02/04 05:10:31;;;;;;;1.30;1.20;;;;;;;;;;5017410;28;20491;-92
2023/02/04 05:12:58;;;;;;;1.30;1.20;;;;;;;;;;5018697;28;20064;-92
2023/02/04 05:15:26;;;;;;;1.75;1.65;;;;;;;;;;5017537;28;20415;-92
2023/02/04 05:17:52;;;;;;;1.52;1.42;;;;;;;;;;5017137;28;20062;-92
2023/02/04 05:20:19;;;;;;;2.40;2.22;;;;;;;;;;5017120;28;20049;-92
2023/02/04 05:22:45;;;;;;;2.20;2.05;;;;;;;;;;5015945;28;20571;-91
2023/02/04 05:25:12;;;;;;;0.93;0.93;;;;;;;;;;5016452;28;20053;-91
2023/02/04 05:27:38;;;;;;;2.70;2.50;;;;;;;;;;5017061;28;20054;-92
2023/02/04 05:30:05;;;;;;;3.22;2.92;;;;;;;;;;5017133;28;20384;-93
2023/02/04 05:32:33;;;;;;;2.85;1.88;;;;;;;;;;5017410;28;20127;-94
2023/02/04 05:35:00;;;;;;;1.60;1.50;;;;;;;;;;5017096;28;20045;-92
2023/02/04 05:37:26;;;;;;;3.40;3.10;;;;;;;;;;5016343;28;20050;-91
2023/02/04 05:39:53;;;;;;;2.15;2.05;;;;;;;;;;5016449;28;20099;-90
2023/02/04 05:42:19;;;;;;;2.40;2.28;;;;;;;;;;5016411;28;20107;-90
2023/02/04 05:44:46;;;;;;;2.47;2.38;;;;;;;;;;5016519;28;20050;-91
2023/02/04 05:47:12;;;;;;;3.15;2.95;;;;;;;;;;5016902;28;20045;-91
2023/02/04 05:49:40;;;;;;;1.50;0.98;;;;;;;;;;5015943;28;20056;-90
2023/02/04 05:52:07;;;;;;;1.60;1.50;;;;;;;;;;5016532;28;20054;-92
2023/02/04 05:54:33;;;;;;;2.65;2.45;;;;;;;;;;5016722;28;20050;-92
2023/02/04 05:57:00;;;;;;;0.47;0.45;;;;;;;;;;4998267;28;20050;-90
2023/02/04 05:59:26;;;;;;;2.30;2.10;;;;;;;;;;4996612;28;20058;-91
2023/02/04 06:01:53;;;;;;;3.05;2.83;;;;;;;;;;4996710;28;20121;-91
2023/02/04 06:04:19;;;;;;;3.40;2.67;;;;;;;;;;4996639;28;20137;-92
2023/02/04 06:06:47;;;;;;;3.08;2.88;;;;;;;;;;4996689;28;20055;-92
2023/02/04 06:09:14;;;;;;;3.28;2.97;;;;;;;;;;4997836;28;20120;-93
2023/02/04 06:11:40;;;;;;;1.67;1.58;;;;;;;;;;5036067;28;20049;-92
2023/02/04 06:14:07;;;;;;;1.95;1.85;;;;;;;;;;5021288;28;20574;-91
2023/02/04 06:16:33;;;;;;;1.83;1.67;;;;;;;;;;5015968;28;20042;-92
2023/02/04 06:19:00;;;;;;;1.52;1.20;;;;;;;;;;5033986;28;20057;-92
2023/02/04 06:21:26;;;;;;;0.85;0.85;;;;;;;;;;5035531;28;20045;-91
2023/02/04 06:23:54;;;;;;;2.03;1.73;;;;;;;;;;5036111;28;20057;-92
2023/02/04 06:26:21;;;;;;;2.58;2.40;;;;;;;;;;5035617;28;20557;-91
2023/02/04 06:28:47;;;;;;;1.50;1.40;;;;;;;;;;5035954;28;20053;-91
2023/02/04 06:31:14;;;;;;;1.52;1.42;;;;;;;;;;5017764;28;20054;-91
2023/02/04 06:33:40;;;;;;;1.13;1.13;;;;;;;;;;5015802;28;20058;-91
2023/02/04 06:36:07;;;;;;;1.52;1.42;;;;;;;;;;5015079;28;20050;-91
2023/02/04 06:38:33;;;;;;;1.25;1.17;;;;;;;;;;5015722;28;20508;-91
2023/02/04 06:41:01;;;;;;;4.75;3.33;;;;;;;;;;5015377;28;20141;-93
2023/02/04 06:43:28;;;;;;;2.33;2.05;;;;;;;;;;5015677;28;20065;-89
2023/02/04 06:45:54;;;;;;;2.78;2.58;;;;;;;;;;5016196;28;20042;-88
2023/02/04 06:48:21;;;;;;;4.55;4.25;;;;;;;;;;5034885;28;20041;-88
2023/02/04 06:50:47;;;;;;;1.75;1.10;;;;;;;;;;5035399;28;20041;-92
2023/02/04 06:53:14;;;;;;;2.28;1.77;;;;;;;;;;5036006;28;20057;-92
2023/02/04 06:55:41;;;;;;;1.52;1.42;;;;;;;;;;5035467;28;20041;-92
2023/02/04 06:58:08;;;;;;;2.72;2.45;;;;;;;;;;5035162;28;20052;-92
2023/02/04 07:00:35;;;;;;;1.17;1.17;;;;;;;;;;5035267;28;20056;-92
2023/02/04 07:03:02;;;;;;;2.47;2.28;;;;;;;;;;5035151;28;20048;-92
2023/02/04 07:05:28;;;;;;;2.78;2.63;;;;;;;;;;5023536;28;20050;-92
2023/02/04 07:07:55;;;;;;;1.52;1.42;;;;;;;;;;5015102;28;20050;-92
2023/02/04 07:10:21;;;;;;;2.33;2.22;;;;;;;;;;5015741;28;20459;-92
2023/02/04 07:12:48;;;;;;;2.10;2.00;;;;;;;;;;5000265;28;20455;-91
2023/02/04 07:15:16;;;;;;;2.55;2.38;;;;;;;;;;5001547;28;20487;-91
2023/02/04 07:17:42;;;;;;;1.50;1.40;;;;;;;;;;5014737;28;20089;-91
2023/02/04 07:20:10;;;;;;;3.38;3.15;;;;;;;;;;5013961;28;20050;-91
2023/02/04 07:22:36;;;;;;;6.20;2.28;;;;;;;;;;4995238;28;20077;-90
2023/02/04 07:25:03;;;;;;;5.95;2.70;;;;;;;;;;4995089;28;20053;-91
2023/02/04 07:27:30;;;;;;;1.52;1.42;;;;;;;;;;4995899;28;20046;-90
2023/02/04 07:29:56;;;;;;;4.80;3.72;;;;;;;;;;4995533;28;20065;-91
2023/02/04 07:32:26;;;;;;;2.58;2.20;;;;;;;;;;4995284;28;20053;-91
2023/02/04 07:34:53;;;;;;;1.83;1.42;;;;;;;;;;4998004;28;20054;-91
2023/02/04 07:37:20;;;;;;;3.30;2.70;;;;;;;;;;5034176;28;20514;-92
2023/02/04 07:39:46;;;;;;;5.22;2.40;;;;;;;;;;5019713;28;20046;-92
2023/02/04 07:42:13;;;;;;;5.18;3.58;;;;;;;;;;5014553;28;20057;-92
2023/02/04 07:44:39;;;;;;;2.70;1.92;;;;;;;;;;5014444;28;20061;-92
2023/02/04 07:47:06;;;;;;;3.55;2.67;;;;;;;;;;5011863;28;20050;-92
2023/02/04 07:49:34;;;;;;;1.55;1.45;;;;;;;;;;5014210;28;20141;-92
2023/02/04 07:52:00;;;;;;;2.20;1.80;;;;;;;;;;5014428;28;20057;-92
2023/02/04 07:54:27;;;;;;;8.27;4.22;;;;;;;;;;5014561;28;20100;-92
2023/02/04 07:56:53;;;;;;;6.63;2.95;;;;;;;;;;5013143;28;20046;-92
2023/02/04 07:59:20;;;;;;;1.55;1.45;;;;;;;;;;5014483;28;20558;-92
2023/02/04 08:01:48;;;;;;;2.03;1.90;;;;;;;;;;5021092;28;20050;-92
2023/02/04 08:04:15;;;;;;;5.40;4.13;;;;;;;;;;5015541;28;20052;-92
2023/02/04 08:06:43;;;;;;;4.38;1.25;;;;;;;;;;5014530;28;20053;-92
2023/02/04 08:09:09;;;;;;;3.63;3.33;;;;;;;;;;5014200;28;20050;-92
2023/02/04 08:11:36;;;;;;;2.67;2.47;;;;;;;;;;5015082;28;20054;-93
2023/02/04 08:14:02;;;;;;;5.65;2.47;;;;;;;;;;5059990;23;20092;-92
2023/02/04 08:16:29;;;;;;;1.25;1.23;;;;;;;;;;5053554;28;20049;-91
2023/02/04 08:18:55;;;;;;;4.03;3.63;;;;;;;;;;5053537;28;20049;-92
2023/02/04 08:21:22;;;;;;;2.70;2.08;;;;;;;;;;5054331;28;20056;-91
2023/02/04 08:23:50;;;;;;;1.77;1.42;;;;;;;;;;5053789;28;20053;-91
2023/02/04 08:26:20;;;;;;;1.95;1.75;;;;;;;;;;5053885;28;20099;-91
2023/02/04 08:28:47;;;;;;;3.38;1.95;;;;;;;;;;5054040;28;20041;-93
2023/02/04 08:31:13;;;;;;;2.38;1.27;;;;;;;;;;5045369;28;20037;-91
2023/02/04 08:33:40;;;;;;;5.82;3.15;;;;;;;;;;5033509;28;20054;-91
2023/02/04 08:36:07;;;;;;;1.50;1.15;;;;;;;;;;5035366;28;20164;-92
2023/02/04 08:38:33;;;;;;;1.42;1.38;;;;;;;;;;5038025;28;20045;-91
2023/02/04 08:41:01;;;;;;;6.75;3.20;;;;;;;;;;5037667;28;20103;-91
2023/02/04 08:43:28;;;;;;;5.63;2.72;;;;;;;;;;5037568;28;20041;-91
2023/02/04 08:45:54;;;;;;;7.43;5.43;;;;;;;;;;5055150;28;20186;-91
2023/02/04 08:48:21;;;;;;;7.97;4.50;;;;;;;;;;5057274;28;20509;-91
2023/02/04 08:50:47;;;;;;;4.38;2.47;;;;;;;;;;5060539;28;20426;-91
2023/02/04 08:53:14;;;;;;;3.30;3.10;;;;;;;;;;5063292;28;20048;-91
2023/02/04 08:55:40;;;;;;;2.55;2.42;;;;;;;;;;5064488;28;20048;-91
2023/02/04 08:58:08;;;;;;;5.35;4.78;;;;;;;;;;5065892;28;20045;-90
2023/02/04 09:00:35;;;;;;;1.33;1.10;;;;;;;;;;5064871;28;20064;-90
2023/02/04 09:03:01;;;;;;;2.78;2.58;;;;;;;;;;5065085;28;20080;-90
2023/02/04 09:05:28;;;;;;;3.42;2.80;;;;;;;;;;5064270;28;20045;-90
2023/02/04 09:07:54;;;;;;;2.97;2.45;;;;;;;;;;5057327;28;20045;-92
2023/02/04 09:10:21;;;;;;;3.92;2.10;;;;;;;;;;5037840;28;20041;-91
2023/02/04 09:12:47;;;;;;;1.80;1.70;;;;;;;;;;5021319;28;20112;-88
2023/02/04 09:15:16;;;;;;;3.58;2.78;;;;;;;;;;5030110;28;20085;-91
2023/02/04 09:17:42;;;;;;;2.38;1.65;;;;;;;;;;5038207;28;20057;-88
2023/02/04 09:20:10;;;;;;;4.18;3.45;;;;;;;;;;5036862;28;20695;-88
2023/02/04 09:22:36;;;;;;;2.20;1.88;;;;;;;;;;5036071;28;20049;-91
2023/02/04 09:25:03;;;;;;;4.13;2.60;;;;;;;;;;5036794;28;20045;-88
2023/02/04 09:27:30;;;;;;;1.33;1.23;;;;;;;;;;5036413;28;20111;-89
2023/02/04 09:29:56;;;;;;;1.65;1.15;;;;;;;;;;5036058;28;20053;-89
2023/02/04 09:32:24;;;;;;;1.55;1.45;;;;;;;;;;5036404;28;20049;-90
2023/02/04 09:34:51;;;;;;;3.20;1.63;;;;;;;;;;5036581;28;20045;-90
2023/02/04 09:37:17;;;;;;;2.55;2.35;;;;;;;;;;5036685;28;20045;-90
2023/02/04 09:39:44;;;;;;;2.22;1.80;;;;;;;;;;5036682;28;20049;-90
2023/02/04 09:42:12;;;;;;;5.10;4.53;;;;;;;;;;5036796;28;20053;-91
2023/02/04 09:44:39;;;;;;;3.72;3.42;;;;;;;;;;5036730;28;20804;-90
2023/02/04 09:47:06;;;;;;;3.55;3.00;;;;;;;;;;5036080;28;20045;-90
2023/02/04 09:49:34;;;;;;;2.67;2.47;;;;;;;;;;5035817;28;20054;-89
2023/02/04 09:52:00;;;;;;;2.90;2.70;;;;;;;;;;5042953;28;20141;-90
2023/02/04 09:54:27;;;;;;;6.40;6.05;;;;;;;;;;5044899;28;20537;-91
2023/02/04 09:56:56;;;;;;;5.35;4.88;;;;;;;;;;5048197;28;20050;-89
2023/02/04 09:59:24;;;;;;;6.57;5.97;;;;;;;;;;5038253;28;20158;-89
2023/02/04 10:01:57;;;;;;;6.05;5.07;;;;;;;;;;5037947;28;20050;-89
2023/02/04 10:04:24;;;;;;;6.22;5.75;;;;;;;;;;5037635;28;20111;-89
2023/02/04 10:06:58;;;;;;;9.68;5.80;;;;;;;;;;5037844;28;20053;-90
2023/02/04 10:09:25;;;;;;;4.78;4.25;;;;;;;;;;5036715;28;20488;-90
2023/02/04 10:11:51;;;;;;;4.65;4.22;;;;;;;;;;5019855;28;20061;-91
2023/02/04 10:14:19;;;;;;;4.95;4.35;;;;;;;;;;5017361;28;20054;-90
2023/02/04 10:16:48;;;;;;;4.13;3.83;;;;;;;;;;5017146;28;20058;-91
2023/02/04 10:19:17;;;;;;;4.63;3.67;;;;;;;;;;5018053;28;20050;-90
2023/02/04 10:21:44;;;;;;;5.20;3.95;;;;;;;;;;5018424;28;20050;-89
2023/02/04 10:24:16;;;;;;;8.07;4.65;;;;;;;;;;5016931;28;20061;-89
2023/02/04 10:26:43;;;;;;;1.98;1.88;;;;;;;;;;5016673;28;20050;-91
2023/02/04 10:29:13;;;;;;;3.92;3.58;;;;;;;;;;5014842;28;20058;-89
2023/02/04 10:31:40;;;;;;;3.53;2.90;;;;;;;;;;5017074;28;20057;-90
2023/02/04 10:34:11;;;;;;;6.45;3.15;;;;;;;;;;5017150;28;20049;-90
2023/02/04 10:36:40;;;;;;;4.72;3.78;;;;;;;;;;5017816;28;20053;-90
2023/02/04 10:39:10;;;;;;;4.57;4.18;;;;;;;;;;5017954;28;20056;-90
2023/02/04 10:41:38;;;;;;;6.63;4.85;;;;;;;;;;5017204;28;20054;-90
2023/02/04 10:44:07;;;;;;;4.72;4.32;;;;;;;;;;5017279;28;20050;-90
2023/02/04 10:46:34;;;;;;;3.58;3.17;;;;;;;;;;5016111;28;20054;-91
2023/02/04 10:49:02;;;;;;;6.68;6.05;;;;;;;;;;5018288;28;20054;-89
2023/02/04 10:51:29;;;;;;;1.75;1.65;;;;;;;;;;5018771;28;20042;-91
2023/02/04 10:56:43;;;;;;;3.33;3.03;;;;;;;;;;5017083;28;20073;-91
2023/02/04 10:59:19;;;;;;;4.43;4.03;;;;;;;;;;5017142;28;20081;-91
2023/02/04 11:01:46;;;;;;;8.45;7.82;;;;;;;;;;5022313;28;20532;-90
2023/02/04 11:04:13;;;;;;;6.55;2.88;;;;;;;;;;5017371;28;20045;-91
2023/02/04 11:06:39;;;;;;;3.22;3.03;;;;;;;;;;5018023;28;20532;-91
2023/02/04 11:09:05;;;;;;;5.55;4.47;;;;;;;;;;5015557;28;20050;-90
2023/02/04 11:11:32;;;;;;;7.30;6.43;;;;;;;;;;5016940;28;20054;-91
2023/02/04 11:14:02;;;;;;;3.25;2.95;;;;;;;;;;5017594;28;20115;-90
2023/02/04 11:16:30;;;;;;;6.82;4.63;;;;;;;;;;5034198;28;20053;-91
2023/02/04 11:18:58;;;;;;;5.20;4.70;;;;;;;;;;5034352;28;20056;-89
2023/02/04 11:21:26;;;;;;;7.15;3.58;;;;;;;;;;5029634;28;20184;-89
2023/02/04 11:24:03;;;;;;;3.92;1.77;;;;;;;;;;5033608;28;20053;-89
2023/02/04 11:26:30;;;;;;;;;;;;;;;;;;5034658;28;20069;-89
2023/02/04 11:29:08;;;;;;;9.82;3.38;;;;;;;;;;5034019;28;19925;-89
2023/02/04 11:31:57;;;;;;;2.33;2.13;;;;;;;;;;5032004;28;20140;-89
2023/02/04 11:34:25;;;;;;;1.95;1.65;;;;;;;;;;5036445;28;20487;-89
2023/02/04 11:36:56;;;;;;;3.05;2.83;;;;;;;;;;5029430;28;20438;-89
2023/02/04 11:39:24;;;;;;;3.38;3.03;;;;;;;;;;5015300;28;20046;-89
2023/02/04 11:41:50;;;;;;;5.53;4.38;;;;;;;;;;5014874;28;20129;-90
2023/02/04 11:44:17;;;;;;;2.00;1.60;;;;;;;;;;5014335;28;20064;-89
2023/02/04 11:46:49;;;;;;;6.55;2.63;;;;;;;;;;5011824;28;20054;-89
2023/02/04 11:49:18;;;;;;;3.47;3.28;;;;;;;;;;5014236;28;20048;-90
2023/02/04 11:51:45;;;;;;;4.85;3.42;;;;;;;;;;5016546;28;20049;-90
2023/02/04 11:54:15;;;;;;;5.55;3.55;;;;;;;;;;5031977;28;20132;-90
2023/02/04 11:56:42;;;;;;;5.13;4.72;;;;;;;;;;5033735;28;20049;-90
2023/02/04 11:59:10;;;;;;;5.28;4.80;;;;;;;;;;5033273;28;20049;-90
2023/02/04 12:01:36;;;;;;;6.03;5.20;;;;;;;;;;5032206;28;20053;-90
2023/02/04 12:04:05;;;;;;;5.00;4.60;;;;;;;;;;5014445;28;20462;-89
2023/02/04 12:06:35;;;;;;;3.45;3.20;;;;;;;;;;5014720;28;20058;-90
2023/02/04 12:09:05;;;;;;;2.40;1.63;;;;;;;;;;5023030;28;20045;-91
2023/02/04 12:11:32;;;;;;;3.15;1.83;;;;;;;;;;5037260;28;20097;-90
2023/02/04 12:13:59;;;;;;;0.70;0.70;;;;;;;;;;5038060;28;20049;-91
2023/02/04 12:16:26;;;;;;;0.60;0.60;;;;;;;;;;5036664;28;20046;-90
2023/02/04 12:18:53;;;;;;;0.88;0.88;;;;;;;;;;5037895;28;20041;-90
2023/02/04 12:21:20;;;;;;;1.25;1.17;;;;;;;;;;5037583;28;20053;-90
2023/02/04 12:23:48;;;;;;;2.63;2.40;;;;;;;;;;5037634;28;20060;-91
2023/02/04 12:26:14;;;;;;;1.48;1.40;;;;;;;;;;5036884;28;20502;-90
2023/02/04 12:28:41;;;;;;;4.45;1.95;;;;;;;;;;5037740;28;20053;-91
2023/02/04 12:31:07;;;;;;;1.92;1.75;;;;;;;;;;5037817;28;20115;-92
2023/02/04 12:33:34;;;;;;;8.13;2.80;;;;;;;;;;5037499;28;20056;-92
2023/02/04 12:36:00;;;;;;;2.33;2.13;;;;;;;;;;5037522;28;20052;-91
2023/02/04 12:38:27;;;;;;;1.98;1.88;;;;;;;;;;5037762;28;20057;-91
2023/02/04 12:40:55;;;;;;;6.10;3.95;;;;;;;;;;5034177;28;20562;-91
2023/02/04 12:43:22;;;;;;;2.90;2.67;;;;;;;;;;5022993;28;20052;-91
2023/02/04 12:45:48;;;;;;;1.13;1.13;;;;;;;;;;5017818;28;20056;-92
2023/02/04 12:48:15;;;;;;;1.95;1.75;;;;;;;;;;5046406;28;20048;-91
2023/02/04 12:50:41;;;;;;;1.50;1.08;;;;;;;;;;5037191;28;20058;-91
2023/02/04 12:53:08;;;;;;;0.88;0.88;;;;;;;;;;5037323;28;20057;-92
2023/02/04 12:55:35;;;;;;;1.40;1.33;;;;;;;;;;5037272;28;20045;-92
2023/02/04 12:58:03;;;;;;;2.42;2.22;;;;;;;;;;5037201;28;20129;-91
2023/02/04 13:00:29;;;;;;;1.10;1.00;;;;;;;;;;5035505;28;20042;-92
2023/02/04 13:02:57;;;;;;;1.02;1.02;;;;;;;;;;5037142;28;20103;-91
2023/02/04 13:05:24;;;;;;;1.13;1.02;;;;;;;;;;5037614;28;20087;-91
2023/02/04 13:07:51;;;;;;;1.67;1.38;;;;;;;;;;5036907;28;20503;-92
2023/02/04 13:10:18;;;;;;;1.30;1.30;;;;;;;;;;5036938;28;20049;-91
2023/02/04 13:12:45;;;;;;;0.65;0.65;;;;;;;;;;5036651;28;20053;-92
2023/02/04 13:15:13;;;;;;;1.13;1.13;;;;;;;;;;5036263;28;20061;-92
2023/02/04 13:17:39;;;;;;;1.17;1.17;;;;;;;;;;5034352;28;20057;-92
2023/02/04 13:20:06;;;;;;;2.75;2.55;;;;;;;;;;5037019;28;20552;-91
2023/02/04 13:22:33;;;;;;;1.48;1.38;;;;;;;;;;5035645;28;20053;-92
2023/02/04 13:25:00;;;;;;;1.52;1.42;;;;;;;;;;5037120;28;20060;-92
2023/02/04 13:27:27;;;;;;;2.50;1.27;;;;;;;;;;5036599;28;20053;-91
2023/02/04 13:29:54;;;;;;;1.23;1.23;;;;;;;;;;5040999;28;20136;-91
2023/02/04 13:32:21;;;;;;;2.38;1.30;;;;;;;;;;5056326;28;20053;-90
2023/02/04 13:34:48;;;;;;;1.02;0.95;;;;;;;;;;5042403;28;20561;-91
2023/02/04 13:37:14;;;;;;;1.73;1.50;;;;;;;;;;5037298;28;20103;-91
2023/02/04 13:39:41;;;;;;;3.85;2.10;;;;;;;;;;5052768;28;20057;-91
2023/02/04 13:42:07;;;;;;;1.67;1.58;;;;;;;;;;5055810;28;20445;-92
2023/02/04 13:44:34;;;;;;;1.33;1.23;;;;;;;;;;5055499;28;20053;-91
2023/02/04 13:47:00;;;;;;;1.58;1.40;;;;;;;;;;5056266;28;20105;-91
2023/02/04 13:49:28;;;;;;;2.33;1.63;;;;;;;;;;5037097;28;20060;-90
2023/02/04 13:51:55;;;;;;;2.55;2.20;;;;;;;;;;5034785;28;20053;-90
2023/02/04 13:54:21;;;;;;;1.23;0.80;;;;;;;;;;5018484;28;20046;-90
2023/02/04 13:56:48;;;;;;;3.28;2.97;;;;;;;;;;5018388;28;20053;-90
2023/02/04 13:59:14;;;;;;;0.93;0.93;;;;;;;;;;5056027;28;20107;-90
2023/02/04 14:01:41;;;;;;;0.80;0.70;;;;;;;;;;5056335;28;20056;-91
2023/02/04 14:04:08;;;;;;;2.13;2.03;;;;;;;;;;5052827;28;20446;-91
2023/02/04 14:06:42;;;;;;;6.68;2.38;;;;;;;;;;5056232;28;20145;-91
2023/02/04 14:09:09;;;;;;;0.60;0.60;;;;;;;;;;5052593;28;20550;-91
2023/02/04 14:11:35;;;;;;;1.38;1.27;;;;;;;;;;5042850;28;20050;-91
2023/02/04 14:14:02;;;;;;;2.17;2.08;;;;;;;;;;5043651;28;20049;-91
2023/02/04 14:16:28;;;;;;;0.75;0.70;;;;;;;;;;5054033;28;20052;-91
2023/02/04 14:18:55;;;;;;;0.93;0.93;;;;;;;;;;5038399;28;20044;-90
2023/02/04 14:21:22;;;;;;;2.15;2.05;;;;;;;;;;5054840;28;20502;-91
2023/02/04 14:23:49;;;;;;;2.88;2.67;;;;;;;;;;5055238;28;20557;-91
2023/02/04 14:26:16;;;;;;;1.40;1.33;;;;;;;;;;5054799;28;20103;-90
2023/02/04 14:28:43;;;;;;;0.43;0.43;;;;;;;;;;5034517;28;20065;-90
2023/02/04 14:31:09;;;;;;;1.98;1.88;;;;;;;;;;5035394;28;20050;-90
2023/02/04 14:33:36;;;;;;;1.30;1.20;;;;;;;;;;5034372;28;20045;-90
2023/02/04 14:36:02;;;;;;;1.42;1.33;;;;;;;;;;5034797;28;20053;-90
2023/02/04 14:38:29;;;;;;;1.10;1.02;;;;;;;;;;5041600;28;20047;-91
2023/02/04 14:40:58;;;;;;;0.40;0.40;;;;;;;;;;5035535;28;20129;-91
2023/02/04 14:43:24;;;;;;;1.75;1.65;;;;;;;;;;5033577;28;20069;-90
2023/02/04 14:45:51;;;;;;;0.80;0.80;;;;;;;;;;5034433;28;20049;-90